Shatley Springs, North Carolina
Current Conditions -  °F | °C
As of 8:55 PM on Monday 24 Nov 2014 (Local Time) from KGEV Reporting Station
Clear Clear  
Wind Chill: 53°   Ceiling: Unl
Heat Index: 53°   Visibility: 10mi
Dew Point: 45°   Wind: 6mph
Humidity: 73%   Direction: 290°WNW
Pressure: 29.9"   Gusts: NA
Location:  36.484°N, 81.3801°W
Report Text: KGEV 250155Z AUTO 29005KT 10SM CLR 12/07 A2990 RMK AO2 T01170071
Loading
Personal Weather Stations






























Interactive Weather Map New forecast layout! Learn more

10-Day Weather Forecast

Advertisements
Track Severe Weather on mobile